createdAt,value
2023-04-22T00:01:27.112Z,99.90
2023-04-22T00:03:54.950Z,99.90
2023-04-22T00:06:22.727Z,99.90
2023-04-22T00:08:50.541Z,99.90
2023-04-22T00:11:18.091Z,99.90
2023-04-22T00:13:46.481Z,99.90
2023-04-22T00:16:14.176Z,99.90
2023-04-22T00:18:42.006Z,99.90
2023-04-22T00:23:37.389Z,99.90
2023-04-22T00:26:06.064Z,99.90
2023-04-22T00:28:33.798Z,99.90
2023-04-22T00:31:03.424Z,99.90
2023-04-22T00:33:31.914Z,99.90
2023-04-22T00:40:55.444Z,99.90
2023-04-22T00:43:23.429Z,99.90
2023-04-22T00:45:51.112Z,99.90
2023-04-22T00:48:19.434Z,99.90
2023-04-22T00:50:47.009Z,99.90
2023-04-22T00:53:14.738Z,99.90
2023-04-22T00:55:42.361Z,99.90
2023-04-22T00:58:10.912Z,99.90
2023-04-22T01:00:39.117Z,99.90
2023-04-22T01:03:07.686Z,99.90
2023-04-22T01:05:36.106Z,99.90
2023-04-22T01:08:03.991Z,99.90
2023-04-22T01:10:31.571Z,99.90
2023-04-22T01:12:59.120Z,99.90
2023-04-22T01:15:28.830Z,99.90
2023-04-22T01:17:57.055Z,99.90
2023-04-22T01:20:29.663Z,99.90
2023-04-22T01:23:02.642Z,99.90
2023-04-22T01:25:30.323Z,99.90
2023-04-22T01:27:58.443Z,99.90
2023-04-22T01:30:26.558Z,99.90
2023-04-22T01:35:22.330Z,99.90
2023-04-22T01:40:22.702Z,99.90
2023-04-22T01:42:51.075Z,99.90
2023-04-22T01:45:18.855Z,99.90
2023-04-22T01:47:46.372Z,99.90
2023-04-22T01:50:14.101Z,99.90
2023-04-22T01:52:41.636Z,99.90
2023-04-22T01:55:09.858Z,99.90
2023-04-22T01:57:38.225Z,99.90
2023-04-22T02:00:08.580Z,99.90
2023-04-22T02:02:46.042Z,99.90
2023-04-22T02:05:14.872Z,99.90
2023-04-22T02:07:43.390Z,99.90
2023-04-22T02:10:12.122Z,99.90
2023-04-22T02:12:39.783Z,99.90
2023-04-22T02:15:08.121Z,99.90
2023-04-22T02:17:37.742Z,99.90
2023-04-22T02:20:07.266Z,99.90
2023-04-22T02:22:35.370Z,99.90
2023-04-22T02:25:03.687Z,99.90
2023-04-22T02:29:59.441Z,99.90
2023-04-22T02:32:31.845Z,99.90
2023-04-22T02:37:30.036Z,99.90
2023-04-22T02:39:57.684Z,99.90
2023-04-22T02:42:26.225Z,99.90
2023-04-22T02:52:19.772Z,99.90
2023-04-22T02:54:50.608Z,99.90
2023-04-22T02:57:19.720Z,99.90
2023-04-22T03:02:24.081Z,99.90
2023-04-22T03:08:32.558Z,99.90
2023-04-22T03:11:09.701Z,99.90
2023-04-22T03:16:06.327Z,99.90
2023-04-22T03:18:35.094Z,99.90
2023-04-22T03:21:04.905Z,99.90
2023-04-22T03:26:07.305Z,99.90
2023-04-22T03:28:39.829Z,99.90
2023-04-22T03:31:10.533Z,99.90
2023-04-22T03:33:40.294Z,99.90
2023-04-22T03:36:18.198Z,99.90
2023-04-22T03:39:16.065Z,99.90
2023-04-22T03:46:57.099Z,99.90
2023-04-22T03:49:34.607Z,99.90
2023-04-22T03:52:08.352Z,99.90
2023-04-22T03:54:42.810Z,99.90
2023-04-22T04:00:01.137Z,99.90
2023-04-22T04:05:45.623Z,99.90
2023-04-22T04:08:21.357Z,99.90
2023-04-22T04:10:51.724Z,99.90
2023-04-22T04:16:18.488Z,99.90
2023-04-22T04:21:26.359Z,99.90
2023-04-22T04:23:56.147Z,99.90
2023-04-22T04:26:45.436Z,99.90
2023-04-22T04:29:27.507Z,99.90
2023-04-22T04:32:06.038Z,99.90
2023-04-22T04:34:34.760Z,99.90
2023-04-22T04:37:04.264Z,99.90
2023-04-22T04:39:42.598Z,99.90
2023-04-22T04:44:48.804Z,99.90
2023-04-22T04:47:17.251Z,99.90
2023-04-22T04:49:46.337Z,99.90
2023-04-22T04:52:15.120Z,99.90
2023-04-22T04:54:43.193Z,99.90
2023-04-22T04:57:11.156Z,99.90
2023-04-22T04:59:41.395Z,99.90
2023-04-22T05:02:09.874Z,99.90
2023-04-22T05:04:38.333Z,99.90
2023-04-22T05:07:06.879Z,99.90
2023-04-22T05:09:38.316Z,99.90
2023-04-22T05:12:07.600Z,99.90
2023-04-22T05:14:37.583Z,99.90
2023-04-22T05:17:05.594Z,99.90
2023-04-22T05:19:33.529Z,99.90
2023-04-22T05:22:02.751Z,99.90
2023-04-22T05:27:01.216Z,99.90
2023-04-22T05:32:06.354Z,99.90
2023-04-22T05:34:37.097Z,99.90
2023-04-22T05:37:08.662Z,99.90
2023-04-22T05:39:39.246Z,99.90
2023-04-22T05:42:11.174Z,99.90
2023-04-22T05:44:40.093Z,99.90
2023-04-22T05:47:08.043Z,99.90
2023-04-22T05:52:05.464Z,99.90
2023-04-22T05:54:43.916Z,99.90
2023-04-22T05:57:14.772Z,99.90
2023-04-22T05:59:43.721Z,99.90
2023-04-22T06:02:12.794Z,99.90
2023-04-22T06:04:42.257Z,99.90
2023-04-22T06:07:11.028Z,99.90
2023-04-22T06:09:40.637Z,99.90
2023-04-22T06:12:10.746Z,99.90
2023-04-22T06:14:38.528Z,99.90
2023-04-22T06:17:06.470Z,99.90
2023-04-22T06:19:34.130Z,99.90
2023-04-22T06:22:02.047Z,99.90
2023-04-22T06:24:29.873Z,99.90
2023-04-22T06:26:59.317Z,99.90
2023-04-22T06:29:30.040Z,99.90
2023-04-22T06:31:57.871Z,99.90
2023-04-22T06:34:25.780Z,99.90
2023-04-22T06:36:54.834Z,99.90
2023-04-22T06:41:50.700Z,99.90
2023-04-22T06:44:47.296Z,99.90
2023-04-22T06:47:23.326Z,99.90
2023-04-22T06:50:04.970Z,99.90
2023-04-22T06:52:54.928Z,99.90
2023-04-22T06:55:24.645Z,99.90
2023-04-22T06:57:52.258Z,99.90
2023-04-22T07:00:20.020Z,99.90
2023-04-22T07:02:48.025Z,99.90
2023-04-22T07:05:16.334Z,99.90
2023-04-22T07:07:44.723Z,99.90
2023-04-22T07:13:06.081Z,99.90
2023-04-22T07:15:33.815Z,99.90
2023-04-22T07:18:01.439Z,99.90
2023-04-22T07:20:29.024Z,99.90
2023-04-22T07:22:56.701Z,99.90
2023-04-22T07:25:24.256Z,99.90
2023-04-22T07:27:51.972Z,99.90
2023-04-22T07:30:19.478Z,99.90
2023-04-22T07:32:48.775Z,99.90
2023-04-22T07:35:16.644Z,99.90
2023-04-22T07:37:44.329Z,99.90
2023-04-22T07:42:08.282Z,99.90
2023-04-22T07:44:38.832Z,99.90
2023-04-22T07:49:36.371Z,99.90
2023-04-22T07:52:04.272Z,99.90
2023-04-22T07:54:31.935Z,99.90
2023-04-22T07:56:59.741Z,99.90
2023-04-22T07:59:28.499Z,99.90
2023-04-22T08:01:56.296Z,99.90
2023-04-22T08:04:24.357Z,99.90
2023-04-22T08:06:52.346Z,99.90
2023-04-22T08:09:19.952Z,99.90
2023-04-22T08:14:15.426Z,99.90
2023-04-22T08:19:11.475Z,99.90
2023-04-22T08:24:07.616Z,99.90
2023-04-22T08:26:37.621Z,99.90
2023-04-22T08:31:35.110Z,99.90
2023-04-22T08:36:32.139Z,99.90
2023-04-22T08:38:59.798Z,99.90
2023-04-22T08:41:28.481Z,99.90
2023-04-22T08:43:56.747Z,99.90
2023-04-22T08:46:26.168Z,99.90
2023-04-22T08:48:54.700Z,99.90
2023-04-22T08:51:23.020Z,99.90
2023-04-22T08:53:50.725Z,99.90
2023-04-22T08:56:18.390Z,99.90
2023-04-22T08:58:46.615Z,99.90
2023-04-22T09:01:15.364Z,99.90
2023-04-22T09:03:43.173Z,99.90
2023-04-22T09:06:11.996Z,99.90
2023-04-22T09:08:40.504Z,99.90
2023-04-22T09:13:35.880Z,99.90
2023-04-22T09:16:03.698Z,99.90
2023-04-22T09:18:38.665Z,99.90
2023-04-22T09:21:06.351Z,99.90
2023-04-22T09:23:34.654Z,99.90
2023-04-22T09:26:02.581Z,99.90
2023-04-22T09:28:30.370Z,99.90
2023-04-22T09:31:02.947Z,99.90
2023-04-22T09:33:32.102Z,99.90
2023-04-22T09:35:59.671Z,99.90
2023-04-22T09:38:31.604Z,99.90
2023-04-22T09:40:59.424Z,99.90
2023-04-22T09:43:26.969Z,99.90
2023-04-22T09:45:54.840Z,99.90
2023-04-22T09:48:23.580Z,99.90
2023-04-22T09:50:51.901Z,99.90
2023-04-22T09:53:21.327Z,99.90
2023-04-22T09:55:51.775Z,99.90
2023-04-22T09:58:21.736Z,99.90
2023-04-22T10:00:55.093Z,99.90
2023-04-22T10:03:22.852Z,99.90
2023-04-22T10:05:51.388Z,99.90
2023-04-22T10:08:19.233Z,99.90
2023-04-22T10:10:47.046Z,99.90
2023-04-22T10:13:15.077Z,99.90
2023-04-22T10:15:44.330Z,99.90
2023-04-22T10:18:16.707Z,99.90
2023-04-22T10:20:45.995Z,99.90
2023-04-22T10:23:19.269Z,99.90
2023-04-22T10:25:53.539Z,99.90
2023-04-22T10:28:22.785Z,99.90
2023-04-22T10:30:50.698Z,99.90
2023-04-22T10:33:18.386Z,99.90
2023-04-22T10:36:15.553Z,99.90
2023-04-22T10:39:03.351Z,99.90
2023-04-22T10:41:32.911Z,99.90
2023-04-22T10:44:07.862Z,99.90
2023-04-22T10:46:37.586Z,99.90
2023-04-22T10:49:12.748Z,99.90
2023-04-22T10:51:44.463Z,99.90
2023-04-22T10:54:29.581Z,99.90
2023-04-22T10:57:09.206Z,99.90
2023-04-22T10:59:46.983Z,99.90
2023-04-22T11:02:16.754Z,99.90
2023-04-22T11:04:44.507Z,99.90
2023-04-22T11:07:23.177Z,99.90
2023-04-22T11:10:02.536Z,99.90
2023-04-22T11:12:38.891Z,99.90
2023-04-22T11:15:11.251Z,99.90
2023-04-22T11:17:42.226Z,99.90
2023-04-22T11:20:12.819Z,99.90
2023-04-22T11:22:43.745Z,99.90
2023-04-22T11:25:11.838Z,99.90
2023-04-22T11:27:41.021Z,99.90
2023-04-22T11:30:15.220Z,99.90
2023-04-22T11:32:51.233Z,99.90
2023-04-22T11:35:20.303Z,99.90
2023-04-22T11:37:51.875Z,99.90
2023-04-22T11:40:30.877Z,99.90
2023-04-22T11:43:01.910Z,99.90
2023-04-22T11:45:31.201Z,99.90
2023-04-22T11:47:59.603Z,99.90
2023-04-22T11:50:33.043Z,99.90
2023-04-22T11:53:12.562Z,99.90
2023-04-22T11:55:41.202Z,99.90
2023-04-22T11:58:11.809Z,99.90
2023-04-22T12:00:47.838Z,99.90
2023-04-22T12:03:16.529Z,99.90
2023-04-22T12:05:46.537Z,99.90
2023-04-22T12:08:16.711Z,99.90
2023-04-22T12:10:56.024Z,99.90
2023-04-22T12:13:30.642Z,99.90
2023-04-22T12:16:01.526Z,99.90
2023-04-22T12:18:33.901Z,99.90
2023-04-22T12:21:04.588Z,99.90
2023-04-22T12:23:42.660Z,99.90
2023-04-22T12:26:10.526Z,99.90
2023-04-22T12:28:41.546Z,99.90
2023-04-22T12:31:25.894Z,99.90
2023-04-22T12:33:54.179Z,99.90
2023-04-22T12:36:22.314Z,99.90
2023-04-22T12:38:51.862Z,99.90
2023-04-22T12:41:20.082Z,99.90
2023-04-22T12:43:48.025Z,99.90
2023-04-22T12:46:17.049Z,99.90
2023-04-22T12:48:44.577Z,99.90
2023-04-22T12:51:12.145Z,99.90
2023-04-22T12:53:39.873Z,99.90
2023-04-22T12:56:07.583Z,99.90
2023-04-22T12:58:40.974Z,99.90
2023-04-22T13:01:08.692Z,99.90
2023-04-22T13:03:36.465Z,99.90
2023-04-22T13:06:04.151Z,99.90
2023-04-22T13:08:31.847Z,99.90
2023-04-22T13:11:00.307Z,99.90
2023-04-22T13:13:27.958Z,99.90
2023-04-22T13:15:56.649Z,99.90
2023-04-22T13:18:24.355Z,99.90
2023-04-22T13:20:52.230Z,99.90
2023-04-22T13:23:21.774Z,99.90
2023-04-22T13:25:58.667Z,99.90
2023-04-22T13:28:26.422Z,99.10
2023-04-22T13:30:55.839Z,99.40
2023-04-22T13:33:23.692Z,99.30
2023-04-22T13:35:51.231Z,99.40
2023-04-22T13:38:19.652Z,98.90
2023-04-22T13:40:47.193Z,99.70
2023-04-22T13:43:14.745Z,99.90
2023-04-22T13:45:42.542Z,99.90
2023-04-22T13:48:10.678Z,99.90
2023-04-22T13:50:38.206Z,99.90
2023-04-22T13:53:09.895Z,99.90
2023-04-22T13:55:38.715Z,99.90
2023-04-22T13:58:07.678Z,99.90
2023-04-22T14:00:35.638Z,99.90
2023-04-22T14:03:03.417Z,99.90
2023-04-22T14:05:31.427Z,99.90
2023-04-22T14:07:58.766Z,99.90
2023-04-22T14:10:28.408Z,99.90
2023-04-22T14:12:56.865Z,99.90
2023-04-22T14:15:25.009Z,99.90
2023-04-22T14:17:54.168Z,99.60
2023-04-22T14:20:21.905Z,98.90
2023-04-22T14:22:49.723Z,99.20
2023-04-22T14:25:17.417Z,99.10
2023-04-22T14:27:44.915Z,99.40
2023-04-22T14:30:13.397Z,99.40
2023-04-22T14:32:41.450Z,99.40
2023-04-22T14:35:09.121Z,99.60
2023-04-22T14:37:36.716Z,98.90
2023-04-22T14:40:04.874Z,99.00
2023-04-22T14:42:32.602Z,99.20
2023-04-22T14:45:00.449Z,99.20
2023-04-22T14:47:28.168Z,98.70
2023-04-22T14:49:56.345Z,98.80
2023-04-22T14:52:24.281Z,98.40
2023-04-22T14:54:52.230Z,98.70
2023-04-22T14:57:20.184Z,98.20
2023-04-22T14:59:47.771Z,99.30
2023-04-22T15:02:15.975Z,97.80
2023-04-22T15:04:44.919Z,98.00
2023-04-22T15:07:12.584Z,98.20
2023-04-22T15:09:41.210Z,98.60
2023-04-22T15:12:09.352Z,98.90
2023-04-22T15:14:37.531Z,98.80
2023-04-22T15:17:06.283Z,99.10
2023-04-22T15:19:33.912Z,99.40
2023-04-22T15:22:01.915Z,99.90
2023-04-22T15:24:29.528Z,99.90
2023-04-22T15:26:58.122Z,99.90
2023-04-22T15:29:25.838Z,99.20
2023-04-22T15:31:54.602Z,99.00
2023-04-22T15:34:22.771Z,99.20
2023-04-22T15:36:50.467Z,97.20
2023-04-22T15:39:18.396Z,95.90
2023-04-22T15:41:46.050Z,96.10
2023-04-22T15:46:46.645Z,95.30
2023-04-22T15:57:06.389Z,96.80
2023-04-22T15:59:33.994Z,97.00
2023-04-22T16:02:01.795Z,97.20
2023-04-22T16:04:29.733Z,97.30
2023-04-22T16:06:57.560Z,97.70
2023-04-22T16:09:25.420Z,97.80
2023-04-22T16:11:53.748Z,98.00
2023-04-22T16:16:49.591Z,97.40
2023-04-22T16:19:17.335Z,97.20
2023-04-22T16:21:45.078Z,96.90
2023-04-22T16:24:14.676Z,96.30
2023-04-22T16:26:43.262Z,96.00
2023-04-22T16:29:11.542Z,96.00
2023-04-22T16:31:39.424Z,96.20
2023-04-22T16:34:07.006Z,96.00
2023-04-22T16:36:34.828Z,96.20
2023-04-22T16:39:02.899Z,96.30
2023-04-22T16:41:31.277Z,96.00
2023-04-22T16:43:59.773Z,95.90
2023-04-22T16:46:27.891Z,95.80
2023-04-22T16:48:55.479Z,95.30
2023-04-22T16:51:23.464Z,95.30
2023-04-22T16:53:51.319Z,94.70
2023-04-22T16:56:18.783Z,95.00
2023-04-22T17:17:21.576Z,96.40
2023-04-22T17:19:49.480Z,96.60
2023-04-22T17:24:45.672Z,96.80
2023-04-22T17:27:15.961Z,97.00
2023-04-22T17:29:44.320Z,97.20
2023-04-22T17:32:15.018Z,97.20
2023-04-22T17:34:43.449Z,97.30
2023-04-22T17:37:11.243Z,97.40
2023-04-22T17:39:40.497Z,97.50
2023-04-22T17:42:08.418Z,97.60
2023-04-22T17:44:36.137Z,97.70
2023-04-22T17:47:05.274Z,97.50
2023-04-22T17:49:34.266Z,97.50
2023-04-22T17:52:02.294Z,97.50
2023-04-22T17:56:57.629Z,97.80
2023-04-22T17:59:25.591Z,98.00
2023-04-22T18:01:53.163Z,98.20
2023-04-22T18:04:21.224Z,98.20
2023-04-22T18:06:48.813Z,98.40
2023-04-22T18:09:16.255Z,98.40
2023-04-22T18:11:44.120Z,98.80
2023-04-22T18:14:11.980Z,98.90
2023-04-22T18:16:39.676Z,99.20
2023-04-22T18:19:07.658Z,99.30
2023-04-22T18:21:36.111Z,99.60
2023-04-22T18:24:04.926Z,99.80
2023-04-22T18:26:32.431Z,99.90
2023-04-22T18:29:00.026Z,99.90
2023-04-22T18:31:28.002Z,99.90
2023-04-22T18:33:56.859Z,99.90
2023-04-22T18:36:24.538Z,99.90
2023-04-22T18:38:54.637Z,99.90
2023-04-22T18:41:22.364Z,99.90
2023-04-22T18:43:50.040Z,99.90
2023-04-22T18:48:46.065Z,99.90
2023-04-22T18:53:42.315Z,99.90
2023-04-22T18:56:09.813Z,99.90
2023-04-22T18:58:37.648Z,99.90
2023-04-22T19:01:06.804Z,99.90
2023-04-22T19:08:31.432Z,99.90
2023-04-22T19:10:59.898Z,99.90
2023-04-22T19:13:30.004Z,99.90
2023-04-22T19:15:58.697Z,99.90
2023-04-22T19:18:28.498Z,99.90
2023-04-22T19:20:56.538Z,99.90
2023-04-22T19:23:25.415Z,99.90
2023-04-22T19:28:25.339Z,99.90
2023-04-22T19:33:21.200Z,99.90
2023-04-22T19:35:48.945Z,99.90
2023-04-22T19:38:19.349Z,99.90
2023-04-22T19:40:47.556Z,99.90
2023-04-22T19:43:19.186Z,99.90
2023-04-22T19:45:46.854Z,99.90
2023-04-22T19:48:14.813Z,99.90
2023-04-22T19:50:44.204Z,99.90
2023-04-22T19:53:12.021Z,99.90
2023-04-22T19:55:40.145Z,99.90
2023-04-22T19:58:08.049Z,99.90
2023-04-22T20:00:37.606Z,99.90
2023-04-22T20:03:06.791Z,99.90
2023-04-22T20:05:34.770Z,99.90
2023-04-22T20:08:03.474Z,99.90
2023-04-22T20:10:31.423Z,99.90
2023-04-22T20:12:59.736Z,99.90
2023-04-22T20:15:28.096Z,99.90
2023-04-22T20:17:56.360Z,99.90
2023-04-22T20:20:26.016Z,99.90
2023-04-22T20:22:57.687Z,99.90
2023-04-22T20:25:25.706Z,99.90
2023-04-22T20:27:53.362Z,99.90
2023-04-22T20:33:04.145Z,99.90
2023-04-22T20:35:37.968Z,99.90
2023-04-22T20:38:08.684Z,99.90
2023-04-22T20:43:07.204Z,99.90
2023-04-22T20:45:36.266Z,99.90
2023-04-22T20:48:03.876Z,99.90
2023-04-22T20:50:33.567Z,99.90
2023-04-22T20:53:03.509Z,99.90
2023-04-22T20:57:59.533Z,99.90
2023-04-22T21:00:27.201Z,99.90
2023-04-22T21:02:56.076Z,99.90
2023-04-22T21:07:52.806Z,99.90
2023-04-22T21:10:21.325Z,99.90
2023-04-22T21:12:49.297Z,99.90
2023-04-22T21:15:17.366Z,99.90
2023-04-22T21:17:56.656Z,99.90
2023-04-22T21:20:27.190Z,99.90
2023-04-22T21:22:56.477Z,99.90
2023-04-22T21:25:24.641Z,99.90
2023-04-22T21:27:52.484Z,99.90
2023-04-22T21:30:20.550Z,99.90
2023-04-22T21:32:48.142Z,99.90
2023-04-22T21:35:15.782Z,99.90
2023-04-22T21:37:43.448Z,99.90
2023-04-22T21:40:13.351Z,99.90
2023-04-22T21:42:41.736Z,99.90
2023-04-22T21:45:09.689Z,99.90
2023-04-22T21:50:05.729Z,99.90
2023-04-22T21:52:33.456Z,99.90
2023-04-22T21:55:01.250Z,99.90
2023-04-22T21:57:29.628Z,99.90
2023-04-22T21:59:57.415Z,99.90
2023-04-22T22:04:54.802Z,99.90
2023-04-22T22:07:22.948Z,99.90
2023-04-22T22:12:19.066Z,99.90
2023-04-22T22:14:46.525Z,99.90
2023-04-22T22:17:14.346Z,99.90
2023-04-22T22:22:10.052Z,99.90
2023-04-22T22:27:08.117Z,99.90
2023-04-22T22:29:36.012Z,99.90
2023-04-22T22:35:12.095Z,99.90
2023-04-22T22:40:09.228Z,99.90
2023-04-22T22:42:36.826Z,99.90
2023-04-22T22:45:05.336Z,99.90
2023-04-22T22:47:33.572Z,99.90
2023-04-22T22:52:29.294Z,99.90
2023-04-22T22:55:00.845Z,99.90
2023-04-22T22:57:28.794Z,99.90
2023-04-22T22:59:56.823Z,99.90
2023-04-22T23:02:50.235Z,99.90
2023-04-22T23:05:18.522Z,99.90
2023-04-22T23:07:46.070Z,99.90
2023-04-22T23:10:13.845Z,99.90
2023-04-22T23:12:41.520Z,99.90
2023-04-22T23:15:10.049Z,99.90
2023-04-22T23:17:38.074Z,99.90
2023-04-22T23:20:09.746Z,99.90
2023-04-22T23:22:40.610Z,99.90
2023-04-22T23:25:10.707Z,99.90
2023-04-22T23:30:06.863Z,99.90
2023-04-22T23:32:35.536Z,99.90
2023-04-22T23:35:05.057Z,99.90
2023-04-22T23:37:34.716Z,99.90
2023-04-22T23:40:02.784Z,99.90
2023-04-22T23:44:58.371Z,99.90
2023-04-22T23:47:26.343Z,99.90
2023-04-22T23:49:53.885Z,99.90
2023-04-22T23:54:52.801Z,99.90
2023-04-22T23:57:20.600Z,99.90
2023-04-22T23:59:48.536Z,99.90
